Latest Weather Observations for Mount Lofty

IDS60901

Issued at 8:15 pm CDT Wednesday 22 October 2014 (issued every 10 minutes, with the page automatically refreshed every 10 minutes)

About weather observations | Map of Adelaide area stations | Latest observations for Adelaide area | Other Formats
Station Details ID: 023842 Name: MOUNT LOFTY Lat: -34.98 Lon: 138.71 Height: 685.0 m
Data from the previous 72 hours. | See also: Recent months at Mount Lofty
Date/Time
CDT
Tmp

°C
App
Tmp
°C
Dew
Point
°C
Rel
Hum
%
Delta-T

°C
Wind Press
QNH
hPa
Press
MSL
hPa
Rain
since
9 am
mm
Dir
 
Spd
km/h
Gust
km/h
Spd
kts
Gust
kts
22/08:00pm 12.9 10.7 9.4 79 1.8 ESE 11 20 6 11 - - 0.0
22/07:30pm 13.9 11.4 9.7 76 2.2 ESE 13 22 7 12 - - 0.0
22/07:00pm 15.3 13.2 9.9 70 2.9 ESE 11 19 6 10 - - 0.0
22/06:30pm 16.7 14.0 9.1 61 4.1 ESE 13 22 7 12 - - 0.0
22/06:00pm 17.8 15.0 8.6 55 4.9 ESE 13 20 7 11 - - 0.0
22/05:30pm 19.6 17.3 8.9 50 5.8 ESE 11 20 6 11 - - 0.0
22/05:00pm 20.9 18.3 9.5 48 6.3 ESE 13 22 7 12 - - 0.0
22/04:30pm 21.4 19.0 8.7 44 6.9 ESE 11 20 6 11 - - 0.0
22/04:00pm 22.4 20.4 8.5 41 7.6 ESE 9 20 5 11 - - 0.0
22/03:30pm 22.7 21.0 9.8 44 7.2 SE 9 19 5 10 - - 0.0
22/03:00pm 22.7 21.1 10.2 45 7.1 SE 9 19 5 10 - - 0.0
22/02:30pm 23.7 22.0 9.7 41 7.9 SE 9 17 5 9 - - 0.0
22/02:00pm 26.1 25.1 11.1 39 8.7 SE 7 17 4 9 - - 0.0
22/01:30pm 27.2 26.6 12.4 40 8.8 NNW 7 13 4 7 - - 0.0
22/01:00pm 26.0 24.5 8.5 33 9.8 WNW 6 11 3 6 - - 0.0
22/12:30pm 26.0 24.6 9.4 35 9.4 NW 7 13 4 7 - - 0.0
22/12:00pm 25.9 24.5 9.7 36 9.2 WNW 7 15 4 8 - - 0.0
22/11:30am 26.9 24.1 5.2 25 11.5 NNW 9 20 5 11 - - 0.0
22/11:00am 27.3 26.0 7.7 29 10.9 NNE 4 9 2 5 - - 0.0
22/10:30am 26.3 25.2 6.9 29 10.5 E 2 7 1 4 - - 0.0
22/10:00am 26.1 24.1 4.6 25 11.2 N 4 7 2 4 - - 0.0
22/09:30am 25.7 22.9 3.0 23 11.5 N 7 13 4 7 - - 0.0
22/09:00am 25.9 23.1 1.9 21 11.9 N 6 9 3 5 - - 0.0
22/08:30am 25.9 22.8 1.2 20 12.1 N 7 13 4 7 - - 0.0
22/08:00am 24.9 21.8 0.4 20 11.8 N 6 11 3 6 - - 0.0
22/07:30am 23.9 20.6 0.3 21 11.2 N 7 11 4 6 - - 0.0
22/07:00am 24.3 21.1 0.6 21 11.4 N 7 15 4 8 - - 0.0
22/06:30am 25.3 21.6 0.0 19 12.1 N 9 17 5 9 - - 0.0
22/06:00am 24.5 20.4 0.1 20 11.6 NE 11 19 6 10 - - 0.0
22/05:30am 24.6 20.9 0.2 20 11.6 NNE 9 20 5 11 - - 0.0
22/05:00am 23.0 19.8 0.8 23 10.6 E 7 13 4 7 - - 0.0
22/04:30am 21.0 18.2 1.8 28 9.2 ESE 6 9 3 5 - - 0.0
22/04:00am 21.1 18.1 1.9 28 9.2 E 7 15 4 8 - - 0.0
22/03:30am 21.6 18.2 1.8 27 9.5 ESE 9 17 5 9 - - 0.0
22/03:00am 23.6 20.7 1.3 23 10.8 E 6 13 3 7 - - 0.0
22/02:30am 25.1 21.5 0.6 20 11.8 NNE 9 19 5 10 - - 0.0
22/02:00am 25.1 22.0 -0.1 19 12.0 NE 6 11 3 6 - - 0.0
22/01:30am 25.2 22.1 0.0 19 12.0 E 6 13 3 7 - - 0.0
22/01:00am 25.1 22.3 -0.1 19 12.0 E 4 9 2 5 - - 0.0
22/12:30am 26.5 23.1 -0.5 17 12.9 NNE 7 19 4 10 - - 0.0
22/12:00am 26.5 23.1 -0.5 17 12.9 E 7 17 4 9 - - 0.0
 
Date/Time
CDT
Tmp

°C
App
Tmp
°C
Dew
Point
°C
Rel
Hum
%
Delta-T

°C
Wind Press
QNH
hPa
Press
MSL
hPa
Rain
since
9 am
mm
Dir
 
Spd
km/h
Gust
km/h
Spd
kts
Gust
kts
21/11:30pm 25.7 22.5 -0.4 18 12.4 E 6 13 3 7 - - 0.0
21/11:00pm 25.8 22.4 -0.3 18 12.4 ENE 7 17 4 9 - - 0.0
21/10:30pm 26.6 23.2 -0.4 17 12.9 NE 7 17 4 9 - - 0.0
21/10:00pm 27.5 24.0 -1.4 15 13.7 N 7 17 4 9 - - 0.0
21/09:30pm 26.6 22.8 -0.4 17 12.9 NNE 9 19 5 10 - - 0.0
21/09:00pm 23.6 20.8 3.0 26 10.3 ESE 7 9 4 5 - - 0.0
21/08:30pm 24.4 21.3 1.3 22 11.2 E 7 13 4 7 - - 0.0
21/08:00pm 25.0 22.3 0.5 20 11.8 E 4 6 2 3 - - 0.0
21/07:30pm 25.4 22.8 0.8 20 11.9 ESE 4 4 2 2 - - 0.0
21/07:00pm 26.0 24.0 -0.1 18 12.5 CALM 0 2 0 1 - - 0.0
21/06:30pm 26.5 23.8 0.3 18 12.7 WSW 4 6 2 3 - - 0.0
21/06:00pm 27.5 25.4 1.8 19 12.9 WSW 2 4 1 2 - - 0.0
21/05:30pm 27.4 25.2 1.0 18 13.0 W 2 4 1 2 - - 0.0
21/05:00pm 28.0 26.0 2.2 19 13.1 W 2 4 1 2 - - 0.0
21/04:30pm 28.3 25.4 1.7 18 13.4 W 6 11 3 6 - - 0.0
21/04:00pm 30.3 27.1 0.8 15 14.8 W 7 15 4 8 - - 0.0
21/03:30pm 30.7 27.7 2.0 16 14.7 W 7 15 4 8 - - 0.0
21/03:00pm 30.3 27.4 1.7 16 14.6 NW 6 13 3 7 - - 0.0
21/02:30pm 29.6 27.1 5.0 21 13.2 N 7 13 4 7 - - 0.0
21/02:00pm 31.0 27.7 2.3 16 14.8 NNW 9 28 5 15 - - 0.0
21/01:30pm 30.0 27.0 3.9 19 13.8 NNE 9 20 5 11 - - 0.0
21/01:00pm 29.3 26.3 4.0 20 13.3 N 9 19 5 10 - - 0.0
21/12:30pm 29.5 26.8 3.5 19 13.6 N 7 15 4 8 - - 0.0
21/12:00pm 28.7 24.8 1.3 17 13.7 N 11 19 6 10 - - 0.0
21/11:30am 28.1 25.0 3.7 21 12.7 NNE 9 24 5 13 - - 0.0
21/11:00am 27.2 24.1 3.7 22 12.1 NE 9 22 5 12 - - 0.0
21/10:30am 25.9 22.3 3.2 23 11.5 ENE 11 20 6 11 - - 0.0
21/10:00am 25.5 21.6 3.5 24 11.2 NE 13 26 7 14 - - 0.0
21/09:30am 24.6 21.1 3.3 25 10.7 NE 11 26 6 14 - - 0.0
21/09:00am 24.0 20.0 2.8 25 10.6 ENE 13 30 7 16 - - 0.0
21/08:30am 23.1 18.8 3.1 27 10.0 ENE 15 32 8 17 - - 0.0
21/08:00am 21.8 17.8 3.0 29 9.3 ENE 13 30 7 16 - - 0.0
21/07:30am 21.4 17.7 2.6 29 9.2 ENE 11 26 6 14 - - 0.0
21/07:00am 20.8 16.7 2.1 29 9.0 ENE 13 30 7 16 - - 0.0
21/06:30am 20.0 16.2 1.9 30 8.6 E 11 22 6 12 - - 0.0
21/06:00am 20.1 15.5 1.5 29 8.8 ENE 15 30 8 16 - - 0.0
21/05:30am 19.5 16.0 1.5 30 8.5 E 9 17 5 9 - - 0.0
21/05:00am 19.4 15.9 1.4 30 8.4 E 9 20 5 11 - - 0.0
21/04:30am 18.7 15.3 1.7 32 8.0 E 9 20 5 11 - - 0.0
21/04:00am 18.7 15.7 1.7 32 8.0 E 7 17 4 9 - - 0.0
21/03:30am 19.0 15.6 2.0 32 8.0 E 9 19 5 10 - - 0.0
21/03:00am 18.6 15.2 2.0 33 7.8 E 9 19 5 10 - - 0.0
21/02:30am 18.5 15.2 2.4 34 7.7 E 9 17 5 9 - - 0.0
21/02:00am 18.3 15.0 2.6 35 7.5 E 9 26 5 14 - - 0.0
21/01:30am 18.2 14.6 2.9 36 7.3 E 11 20 6 11 - - 0.0
21/01:00am 19.0 15.3 2.4 33 7.9 ESE 11 22 6 12 - - 0.0
21/12:30am 19.2 15.5 2.1 32 8.1 E 11 19 6 10 - - 0.0
21/12:00am 19.2 15.5 2.6 33 8.0 E 11 24 6 13 - - 0.0
 
Date/Time
CDT
Tmp

°C
App
Tmp
°C
Dew
Point
°C
Rel
Hum
%
Delta-T

°C
Wind Press
QNH
hPa
Press
MSL
hPa
Rain
since
9 am
mm
Dir
 
Spd
km/h
Gust
km/h
Spd
kts
Gust
kts
20/11:30pm 18.8 15.1 2.6 34 7.7 ESE 11 22 6 12 - - 0.0
20/11:00pm 19.1 15.5 2.9 34 7.8 ESE 11 19 6 10 - - 0.0
20/10:30pm 18.6 15.4 3.3 36 7.4 ESE 9 19 5 10 - - 0.0
20/10:00pm 18.1 15.2 4.7 41 6.6 E 9 19 5 10 - - 0.0
20/09:30pm 17.8 14.8 6.0 46 6.0 ESE 11 20 6 11 - - 0.0
20/09:00pm 18.4 15.5 6.3 45 6.2 ESE 11 20 6 11 - - 0.0
20/08:30pm 18.6 15.2 6.1 44 6.4 ESE 13 30 7 16 - - 0.0
20/08:00pm 18.6 15.9 7.4 48 5.9 ESE 11 26 6 14 - - 0.0
20/07:30pm 18.8 15.8 7.9 49 5.8 E 13 20 7 11 - - 0.0
20/07:00pm 20.3 17.8 8.0 45 6.6 E 11 17 6 9 - - 0.0
20/06:30pm 22.1 19.2 6.3 36 8.3 E 11 19 6 10 - - 0.0
20/06:00pm 22.6 19.4 6.8 36 8.4 ESE 13 24 7 13 - - 0.0
20/05:30pm 23.1 20.3 6.8 35 8.7 E 11 19 6 10 - - 0.0
20/05:00pm 23.8 20.6 7.0 34 9.0 ESE 13 20 7 11 - - 0.0
20/04:30pm 23.7 21.1 7.8 36 8.7 ESE 11 19 6 10 - - 0.0
20/04:00pm 25.6 23.6 8.6 34 9.5 E 9 22 5 12 - - 0.0
20/03:30pm 25.4 22.9 8.0 33 9.6 ESE 11 19 6 10 - - 0.0
20/03:00pm 25.5 23.7 9.3 36 9.1 E 9 17 5 9 - - 0.0
20/02:30pm 24.7 22.8 9.0 37 8.8 E 9 17 5 9 - - 0.0
20/02:00pm 24.4 22.7 8.4 36 8.8 E 7 22 4 12 - - 0.0
20/01:30pm 24.4 22.7 8.4 36 8.8 E 7 13 4 7 - - 0.0
20/01:00pm 22.9 21.4 9.0 41 7.7 E 7 17 4 9 - - 0.0
20/12:30pm 22.1 20.5 10.3 47 6.7 E 9 15 5 8 - - 0.0
20/12:00pm 21.4 20.4 10.9 51 6.0 E 7 15 4 8 - - 0.0
20/11:30am 19.5 17.8 10.0 54 5.3 ESE 9 19 5 10 - - 0.0
20/11:00am 17.8 15.6 9.4 58 4.6 ESE 11 17 6 9 - - 0.0
20/10:30am 16.9 15.2 9.8 63 3.9 E 9 19 5 10 - - 0.0
20/10:00am 14.5 12.1 10.1 75 2.4 ESE 13 20 7 11 - - 0.0
20/09:30am 13.0 10.3 9.1 77 2.0 E 13 20 7 11 - - 0.0
20/09:00am 11.7 9.4 9.1 84 1.4 E 11 20 6 11 - - 0.0
20/08:30am 9.7 5.7 8.3 91 0.7 ESE 19 28 10 15 - - 0.0
20/08:00am 9.0 5.7 8.1 94 0.4 E 15 24 8 13 - - 0.0
20/07:30am 8.5 5.5 7.7 95 0.4 E 13 22 7 12 - - 0.0
20/07:00am 8.1 5.1 7.5 96 0.3 ESE 13 24 7 13 - - 0.0
20/06:30am 8.0 3.8 7.4 96 0.3 ESE 19 28 10 15 - - 0.0
20/06:00am 8.1 4.7 7.5 96 0.3 ESE 15 22 8 12 - - 0.0
20/05:30am 8.3 4.5 7.7 96 0.3 E 17 30 9 16 - - 0.0
20/05:00am 8.3 4.9 7.7 96 0.3 E 15 24 8 13 - - 0.0
20/04:30am 8.2 4.4 7.6 96 0.3 E 17 28 9 15 - - 0.0
20/04:00am 8.4 4.3 7.8 96 0.3 E 19 32 10 17 - - 0.0
20/03:30am 8.5 4.4 7.9 96 0.3 E 19 28 10 15 - - 0.0
20/03:00am 8.9 4.7 8.3 96 0.3 E 20 35 11 19 - - 0.0
20/02:30am 9.2 5.1 8.6 96 0.3 E 20 30 11 16 - - 0.0
20/02:00am 9.5 5.5 8.9 96 0.3 E 20 30 11 16 - - 0.0
20/01:30am 9.9 6.0 9.3 96 0.3 E 20 32 11 17 - - 0.0
20/01:00am 10.1 6.4 9.5 96 0.3 E 19 28 10 15 - - 0.0
20/12:30am 10.2 6.3 9.6 96 0.3 ESE 20 30 11 16 - - 0.0
20/12:00am 10.0 6.1 9.4 96 0.3 E 20 30 11 16 - - 0.0
 
Date/Time
CDT
Tmp

°C
App
Tmp
°C
Dew
Point
°C
Rel
Hum
%
Delta-T

°C
Wind Press
QNH
hPa
Press
MSL
hPa
Rain
since
9 am
mm
Dir
 
Spd
km/h
Gust
km/h
Spd
kts
Gust
kts
19/11:30pm 9.9 6.1 9.1 95 0.4 ESE 19 32 10 17 - - 0.0
19/11:00pm 9.8 5.9 8.7 93 0.6 E 19 26 10 14 - - 0.0
19/10:30pm 10.0 6.0 8.1 88 1.0 E 19 30 10 16 - - 0.0
19/10:00pm 10.7 6.4 7.2 79 1.7 ESE 19 30 10 16 - - 0.0
19/09:30pm 10.8 6.8 6.6 75 2.1 E 17 32 9 17 - - 0.0
19/09:00pm 11.2 6.8 6.5 73 2.3 ESE 19 30 10 16 - - 0.0
19/08:30pm 10.6 7.0 8.5 87 1.1 ESE 17 28 9 15 - - 0.0

Latest Capital City Observations: Canberra | Sydney | Melbourne | Brisbane | Adelaide | Perth | Hobart | Darwin

Other Formats:

Comma delimited format used in spreadsheet applications
http://www.bom.gov.au/fwo/IDS60901/IDS60901.95678.axf

JavaScript Object Notation format (JSON) in row-major order
http://www.bom.gov.au/fwo/IDS60901/IDS60901.95678.json